Time;durP1;ratioP1;P1;durP2;ratioP2;P2;SDS_P1;SDS_P2;PMS_P1;PMS_P2;Temp;Humidity;BMP_temperature;BMP_pressure;BME280_temperature;BME280_humidity;BME280_pressure;Samples;Min_cycle;Max_cycle;Signal;HPM_P1;HPM_P2
2021/06/05 00:00:31;;;;;;;14.23;2.45;;;42.20;17.50;;;;;;5044107;28;20809;-60
2021/06/05 00:02:58;;;;;;;10.60;2.40;;;42.00;17.90;;;;;;5037750;28;20126;-61
2021/06/05 00:05:28;;;;;;;11.27;2.10;;;42.10;17.80;;;;;;5041021;28;20154;-58
2021/06/05 00:07:55;;;;;;;20.05;2.22;;;42.10;17.70;;;;;;5045782;28;20172;-61
2021/06/05 00:10:31;;;;;;;16.75;2.10;;;42.10;17.50;;;;;;5047989;28;20062;-61
2021/06/05 00:12:58;;;;;;;20.20;3.05;;;42.00;17.80;;;;;;5039636;28;20169;-60
2021/06/05 00:15:31;;;;;;;17.23;2.58;;;42.10;18.10;;;;;;5040484;28;20087;-59
2021/06/05 00:17:58;;;;;;;12.77;2.55;;;42.10;17.80;;;;;;5045328;28;20175;-61
2021/06/05 00:20:29;;;;;;;13.98;2.08;;;42.00;17.60;;;;;;5034431;28;20121;-58
2021/06/05 00:22:56;;;;;;;12.30;2.40;;;42.00;17.40;;;;;;5049545;28;20064;-61
2021/06/05 00:25:24;;;;;;;8.68;2.03;;;41.80;17.90;;;;;;5049545;28;20089;-60
2021/06/05 00:27:51;;;;;;;18.20;2.17;;;41.70;17.60;;;;;;5033253;28;20061;-61
2021/06/05 00:30:18;;;;;;;16.98;2.00;;;41.50;17.60;;;;;;5047774;28;20164;-60
2021/06/05 00:32:45;;;;;;;15.20;2.10;;;41.50;17.70;;;;;;5027437;28;20809;-61
2021/06/05 00:35:11;;;;;;;14.25;2.08;;;41.50;17.70;;;;;;5040742;28;20176;-60
2021/06/05 00:37:38;;;;;;;12.27;1.90;;;41.50;17.90;;;;;;5040537;28;20075;-61
2021/06/05 00:40:07;;;;;;;25.88;3.13;;;41.50;17.80;;;;;;5038293;28;20100;-61
2021/06/05 00:42:34;;;;;;;14.77;2.53;;;41.40;17.50;;;;;;5040676;28;20156;-62
2021/06/05 00:45:01;;;;;;;26.02;2.78;;;41.30;17.50;;;;;;5038897;28;20110;-61
2021/06/05 00:47:28;;;;;;;16.02;4.05;;;41.20;17.20;;;;;;5041881;28;20087;-62
2021/06/05 00:49:55;;;;;;;16.15;3.55;;;41.10;17.60;;;;;;5020267;28;20207;-59
2021/06/05 00:52:24;;;;;;;9.18;2.00;;;41.10;17.70;;;;;;5040448;28;20174;-61
2021/06/05 00:54:51;;;;;;;10.48;2.78;;;40.90;17.30;;;;;;5041405;28;20122;-60
2021/06/05 00:57:17;;;;;;;23.38;3.05;;;40.80;17.40;;;;;;5036179;28;20610;-61
2021/06/05 00:59:44;;;;;;;16.58;4.55;;;40.70;17.50;;;;;;5041472;28;20077;-63
2021/06/05 01:02:11;;;;;;;24.38;5.38;;;40.50;17.60;;;;;;5039617;28;20065;-62
2021/06/05 01:04:38;;;;;;;22.95;4.40;;;40.40;18.00;;;;;;5041319;28;20088;-61
2021/06/05 01:07:15;;;;;;;21.85;4.13;;;40.30;18.20;;;;;;5040413;28;20100;-60
2021/06/05 01:10:00;;;;;;;13.30;2.75;;;40.20;17.80;;;;;;5022946;28;20183;-63
2021/06/05 01:12:46;;;;;;;18.50;2.70;;;40.10;17.90;;;;;;5040339;28;20129;-63
2021/06/05 01:15:15;;;;;;;13.65;2.33;;;39.80;17.70;;;;;;5041106;28;20072;-62
2021/06/05 01:17:48;;;;;;;19.67;2.38;;;39.70;17.80;;;;;;5036040;28;20076;-62
2021/06/05 01:20:23;;;;;;;17.17;2.65;;;39.60;17.70;;;;;;5036415;28;20112;-62
2021/06/05 01:23:08;;;;;;;15.30;2.33;;;39.60;17.30;;;;;;5036364;28;20152;-62
2021/06/05 01:26:03;;;;;;;20.73;2.47;;;39.50;16.90;;;;;;5029086;28;20085;-62
2021/06/05 01:28:48;;;;;;;17.02;2.20;;;39.40;16.70;;;;;;5020128;28;20534;-61
2021/06/05 01:31:20;;;;;;;16.17;2.17;;;39.30;17.00;;;;;;5018748;28;20078;-62
2021/06/05 01:33:47;;;;;;;16.08;2.83;;;39.20;16.80;;;;;;5027668;28;20077;-62
2021/06/05 01:36:15;;;;;;;18.33;2.45;;;39.10;16.80;;;;;;5033898;28;20104;-62
2021/06/05 01:38:45;;;;;;;22.45;2.75;;;39.10;16.80;;;;;;5024109;28;20172;-60
2021/06/05 01:41:14;;;;;;;15.52;2.28;;;39.10;17.10;;;;;;5026223;28;20670;-61
2021/06/05 01:43:43;;;;;;;21.45;3.10;;;39.00;17.10;;;;;;5027411;28;20101;-60
2021/06/05 01:46:11;;;;;;;18.67;2.28;;;38.90;17.60;;;;;;5030460;28;20171;-61
2021/06/05 01:48:38;;;;;;;21.27;2.20;;;38.80;17.70;;;;;;5024256;28;20214;-61
2021/06/05 01:51:09;;;;;;;12.25;2.30;;;38.70;17.70;;;;;;5029287;28;20583;-61
2021/06/05 01:53:41;;;;;;;14.70;2.20;;;38.60;18.00;;;;;;5022861;28;20122;-61
2021/06/05 01:56:31;;;;;;;16.00;2.58;;;38.50;17.80;;;;;;5021602;28;20080;-61
2021/06/05 01:58:58;;;;;;;16.60;2.72;;;38.30;17.60;;;;;;5017781;28;20092;-62
2021/06/05 02:01:25;;;;;;;15.90;2.63;;;38.30;17.50;;;;;;5024001;28;20081;-62
2021/06/05 02:03:52;;;;;;;13.45;2.58;;;38.20;17.50;;;;;;5019603;28;20093;-61
2021/06/05 02:06:22;;;;;;;7.10;2.00;;;38.10;17.30;;;;;;5013142;28;20085;-62
2021/06/05 02:08:49;;;;;;;16.55;2.08;;;37.90;17.50;;;;;;5024446;28;20092;-62
2021/06/05 02:11:19;;;;;;;11.85;2.10;;;37.80;17.30;;;;;;5031860;28;20065;-62
2021/06/05 02:13:50;;;;;;;13.07;2.10;;;37.80;17.40;;;;;;5027386;28;20074;-61
2021/06/05 02:16:25;;;;;;;14.95;1.88;;;37.70;17.20;;;;;;5019711;28;20073;-62
2021/06/05 02:18:56;;;;;;;9.03;1.57;;;37.50;16.90;;;;;;5025155;28;20524;-61
2021/06/05 02:21:26;;;;;;;6.88;1.70;;;37.40;17.00;;;;;;5047137;28;20121;-71
2021/06/05 02:24:05;;;;;;;12.00;1.80;;;37.30;16.60;;;;;;5047289;28;20089;-66
2021/06/05 02:26:35;;;;;;;12.15;2.03;;;37.20;16.70;;;;;;5048024;28;20064;-66
2021/06/05 02:29:05;;;;;;;13.20;2.53;;;37.10;16.70;;;;;;5047098;28;20544;-66
2021/06/05 02:31:32;;;;;;;21.95;2.47;;;37.00;16.70;;;;;;5049506;28;20068;-66
2021/06/05 02:34:01;;;;;;;15.80;2.42;;;36.90;16.70;;;;;;5039115;28;20572;-66
2021/06/05 02:36:28;;;;;;;13.25;2.70;;;36.90;16.60;;;;;;5049399;28;20223;-66
2021/06/05 02:38:54;;;;;;;16.15;2.50;;;36.70;16.60;;;;;;5049665;28;20222;-67
2021/06/05 02:41:23;;;;;;;12.10;2.95;;;36.60;16.50;;;;;;5047818;28;20059;-67
2021/06/05 02:43:55;;;;;;;17.45;2.85;;;36.50;16.60;;;;;;5036965;28;20165;-66
2021/06/05 02:46:34;;;;;;;8.43;2.20;;;36.40;16.60;;;;;;5046156;28;20068;-67
2021/06/05 02:49:23;;;;;;;19.38;2.55;;;36.40;16.50;;;;;;5052804;28;20129;-66
2021/06/05 02:52:01;;;;;;;20.90;2.60;;;36.30;16.90;;;;;;5048034;28;20135;-67
2021/06/05 02:54:27;;;;;;;20.65;2.53;;;36.20;17.10;;;;;;5048895;28;20075;-66
2021/06/05 02:56:55;;;;;;;12.68;2.40;;;36.10;17.00;;;;;;5035013;28;20088;-66
2021/06/05 02:59:22;;;;;;;14.60;2.30;;;36.00;17.30;;;;;;5048398;28;20077;-65
2021/06/05 03:01:50;;;;;;;19.77;3.15;;;36.00;17.30;;;;;;5051433;28;20065;-65
2021/06/05 03:04:17;;;;;;;13.48;2.67;;;35.90;17.60;;;;;;5019632;28;20131;-66
2021/06/05 03:06:43;;;;;;;17.60;2.58;;;35.80;17.50;;;;;;5049418;28;20130;-65
2021/06/05 03:09:15;;;;;;;15.57;2.95;;;35.70;17.70;;;;;;5034941;28;20060;-65
2021/06/05 03:11:44;;;;;;;17.83;3.25;;;35.70;17.60;;;;;;5051058;28;20800;-67
2021/06/05 03:14:11;;;;;;;17.90;2.80;;;35.60;17.80;;;;;;5035979;28;20161;-65
2021/06/05 03:16:38;;;;;;;14.45;2.72;;;35.60;17.70;;;;;;5052696;28;20777;-66
2021/06/05 03:19:05;;;;;;;23.17;4.53;;;35.50;17.80;;;;;;5050498;28;20185;-67
2021/06/05 03:21:35;;;;;;;18.77;2.75;;;35.40;17.90;;;;;;5047257;28;20065;-65
2021/06/05 03:24:02;;;;;;;12.07;2.63;;;35.40;17.90;;;;;;5047660;28;20131;-64
2021/06/05 03:26:29;;;;;;;17.15;2.90;;;35.30;18.20;;;;;;5049817;28;20459;-64
2021/06/05 03:28:55;;;;;;;16.52;3.35;;;35.20;18.40;;;;;;5051233;28;20073;-66
2021/06/05 03:31:22;;;;;;;14.10;2.78;;;35.20;18.60;;;;;;5049255;28;20658;-66
2021/06/05 03:33:50;;;;;;;16.73;2.88;;;35.10;18.50;;;;;;5036022;28;20132;-66
2021/06/05 03:36:18;;;;;;;12.85;3.20;;;35.00;18.60;;;;;;5033506;28;20075;-66
2021/06/05 03:38:45;;;;;;;20.75;4.32;;;34.90;18.70;;;;;;5052172;28;20076;-65
2021/06/05 03:41:13;;;;;;;15.50;3.20;;;34.80;18.70;;;;;;5035750;28;20176;-66
2021/06/05 03:43:40;;;;;;;26.88;5.50;;;34.70;18.70;;;;;;5047549;28;20189;-65
2021/06/05 03:46:08;;;;;;;23.95;6.70;;;34.70;18.80;;;;;;5048587;28;20190;-66
2021/06/05 03:48:35;;;;;;;16.42;4.28;;;34.60;19.00;;;;;;5049934;28;20149;-66
2021/06/05 03:51:02;;;;;;;18.23;5.13;;;34.60;19.20;;;;;;5047960;28;20135;-66
2021/06/05 03:53:28;;;;;;;23.65;4.80;;;34.50;19.30;;;;;;5049486;28;20065;-67
2021/06/05 03:55:56;;;;;;;22.02;5.00;;;34.50;19.50;;;;;;5052798;28;20081;-66
2021/06/05 03:58:45;;;;;;;24.80;5.40;;;34.30;19.90;;;;;;5049702;28;20069;-66
2021/06/05 04:01:21;;;;;;;23.25;4.15;;;34.30;20.50;;;;;;5051120;28;20130;-66
2021/06/05 04:03:48;;;;;;;17.98;4.63;;;34.20;20.80;;;;;;5032730;28;20099;-66
2021/06/05 04:06:16;;;;;;;18.23;5.28;;;34.10;21.20;;;;;;5047495;28;21659;-66
2021/06/05 04:08:42;;;;;;;25.23;7.53;;;34.10;21.40;;;;;;5048059;28;20080;-66
2021/06/05 04:11:09;;;;;;;25.77;5.00;;;34.00;21.80;;;;;;5047905;28;20080;-65
2021/06/05 04:13:36;;;;;;;31.10;4.60;;;33.90;22.80;;;;;;5017920;28;20160;-66
2021/06/05 04:16:06;;;;;;;19.50;4.53;;;33.80;23.20;;;;;;5047353;28;20065;-66
2021/06/05 04:18:39;;;;;;;21.02;5.25;;;33.80;23.00;;;;;;5031632;28;20084;-66
2021/06/05 04:21:09;;;;;;;30.05;8.40;;;33.80;22.90;;;;;;5044132;28;20101;-65
2021/06/05 04:23:36;;;;;;;24.80;6.53;;;33.80;24.10;;;;;;5047345;28;20636;-66
2021/06/05 04:26:04;;;;;;;26.67;4.82;;;33.60;24.40;;;;;;5048462;28;20072;-67
2021/06/05 04:28:31;;;;;;;30.05;5.78;;;33.50;25.00;;;;;;5047530;28;20072;-66
2021/06/05 04:30:57;;;;;;;19.85;4.95;;;33.50;24.90;;;;;;5050127;28;20064;-65
2021/06/05 04:33:26;;;;;;;30.50;4.95;;;33.40;24.50;;;;;;5047733;28;20068;-65
2021/06/05 04:35:55;;;;;;;27.63;4.38;;;33.30;24.90;;;;;;5049167;28;20713;-66
2021/06/05 04:38:22;;;;;;;21.80;4.45;;;33.30;25.40;;;;;;5051321;28;20077;-64
2021/06/05 04:40:49;;;;;;;22.08;4.03;;;33.20;25.40;;;;;;5047602;28;20836;-65
2021/06/05 04:43:17;;;;;;;26.08;4.60;;;33.00;25.70;;;;;;5045642;28;20091;-66
2021/06/05 04:45:47;;;;;;;18.98;3.50;;;32.90;25.90;;;;;;5048961;28;20105;-66
2021/06/05 04:48:14;;;;;;;16.67;3.83;;;32.90;26.40;;;;;;5035610;28;20064;-66
2021/06/05 04:50:42;;;;;;;13.48;3.08;;;32.80;27.10;;;;;;5050152;28;21196;-66
2021/06/05 04:53:09;;;;;;;16.35;3.20;;;32.80;27.60;;;;;;5052256;28;20074;-67
2021/06/05 04:55:37;;;;;;;16.77;3.33;;;32.70;27.80;;;;;;5051582;28;20792;-67
2021/06/05 04:58:05;;;;;;;14.60;3.08;;;32.60;28.10;;;;;;5047947;28;20165;-67
2021/06/05 05:00:34;;;;;;;23.48;3.35;;;32.60;28.30;;;;;;5048071;28;20152;-67
2021/06/05 05:03:01;;;;;;;40.72;18.98;;;32.50;28.50;;;;;;5045709;28;20088;-68
2021/06/05 05:05:29;;;;;;;38.65;17.10;;;32.40;28.60;;;;;;5036553;28;20092;-67
2021/06/05 05:07:55;;;;;;;40.65;10.27;;;32.40;28.80;;;;;;5052065;28;20072;-69
2021/06/05 05:10:28;;;;;;;52.03;26.38;;;32.20;28.60;;;;;;5050633;28;20824;-66
2021/06/05 05:12:54;;;;;;;58.05;23.20;;;32.20;28.20;;;;;;5036699;28;20100;-66
2021/06/05 05:15:22;;;;;;;36.72;12.60;;;32.20;28.20;;;;;;5051645;28;20165;-67
2021/06/05 05:17:49;;;;;;;38.40;18.23;;;32.10;28.50;;;;;;5051454;28;20716;-67
2021/06/05 05:20:19;;;;;;;40.22;18.58;;;32.00;28.80;;;;;;5028303;28;20104;-69
2021/06/05 05:22:46;;;;;;;28.88;9.88;;;31.90;29.10;;;;;;5025922;28;20167;-67
2021/06/05 05:25:13;;;;;;;30.30;8.88;;;31.80;29.20;;;;;;5030938;28;20101;-66
2021/06/05 05:27:40;;;;;;;25.35;8.85;;;31.80;29.50;;;;;;5021134;28;20076;-68
2021/06/05 05:30:12;;;;;;;24.63;7.00;;;31.70;29.80;;;;;;5023948;28;20072;-67
2021/06/05 05:32:38;;;;;;;27.48;5.95;;;31.70;30.00;;;;;;5006979;28;20130;-67
2021/06/05 05:35:09;;;;;;;29.83;5.07;;;31.60;30.30;;;;;;5025105;28;20084;-67
2021/06/05 05:37:35;;;;;;;31.83;7.70;;;31.60;30.70;;;;;;5036908;28;20159;-67
2021/06/05 05:40:03;;;;;;;33.38;7.55;;;31.50;31.00;;;;;;5026456;28;20129;-66
2021/06/05 05:42:30;;;;;;;25.77;9.07;;;31.30;31.30;;;;;;5017873;28;20069;-67
2021/06/05 05:44:56;;;;;;;40.78;7.85;;;31.40;31.60;;;;;;5028152;28;20101;-67
2021/06/05 05:47:23;;;;;;;24.02;5.00;;;31.30;31.70;;;;;;5029678;28;20165;-67
2021/06/05 05:49:50;;;;;;;29.10;5.35;;;31.30;32.00;;;;;;5013025;28;20072;-65
2021/06/05 05:52:16;;;;;;;35.40;6.13;;;31.30;32.50;;;;;;5028387;28;20163;-66
2021/06/05 05:54:43;;;;;;;28.85;6.85;;;31.30;32.60;;;;;;5030852;28;20146;-65
2021/06/05 05:57:09;;;;;;;32.95;6.18;;;31.20;32.60;;;;;;5036275;28;20073;-67
2021/06/05 05:59:36;;;;;;;28.17;4.85;;;31.20;32.90;;;;;;5040604;28;20813;-67
2021/06/05 06:02:05;;;;;;;31.42;4.93;;;31.10;33.20;;;;;;5002051;28;20079;-65
2021/06/05 06:04:32;;;;;;;29.70;5.60;;;31.10;33.80;;;;;;5031815;28;20117;-66
2021/06/05 06:06:58;;;;;;;33.00;6.22;;;31.00;34.00;;;;;;5023955;28;20717;-66
2021/06/05 06:09:25;;;;;;;38.65;5.47;;;31.00;34.30;;;;;;5005797;28;20602;-65
2021/06/05 06:11:54;;;;;;;33.75;5.00;;;31.00;34.70;;;;;;5015735;28;20070;-66
2021/06/05 06:14:21;;;;;;;25.73;4.75;;;31.00;34.40;;;;;;5032113;28;20129;-66
2021/06/05 06:16:48;;;;;;;28.88;5.18;;;30.90;34.50;;;;;;5035347;28;20069;-65
2021/06/05 06:19:15;;;;;;;32.90;5.97;;;30.80;34.70;;;;;;5041150;28;20101;-65
2021/06/05 06:21:43;;;;;;;32.30;5.20;;;30.70;34.80;;;;;;5034851;28;20077;-65
2021/06/05 06:24:11;;;;;;;21.42;4.90;;;30.70;35.20;;;;;;5037228;28;20150;-66
2021/06/05 06:26:38;;;;;;;31.25;5.63;;;30.60;35.70;;;;;;5017994;28;20074;-65
2021/06/05 06:29:19;;;;;;;26.45;6.18;;;30.60;35.70;;;;;;5026045;28;20122;-66
2021/06/05 06:31:48;;;;;;;26.65;6.65;;;30.60;35.50;;;;;;5031013;28;20065;-66
2021/06/05 06:34:16;;;;;;;25.15;5.57;;;30.60;35.60;;;;;;5035150;28;21240;-66
2021/06/05 06:36:44;;;;;;;34.17;5.82;;;30.50;35.50;;;;;;5039525;28;20077;-66
2021/06/05 06:39:13;;;;;;;26.75;5.07;;;30.40;35.70;;;;;;5039656;28;20112;-65
2021/06/05 06:41:40;;;;;;;28.75;4.53;;;30.40;36.00;;;;;;5039643;28;20057;-66
2021/06/05 06:44:08;;;;;;;37.45;5.28;;;30.30;36.00;;;;;;5037361;28;20746;-66
2021/06/05 06:46:44;;;;;;;25.92;5.22;;;30.30;35.80;;;;;;5030893;28;20118;-66
2021/06/05 06:49:11;;;;;;;;;;;30.20;35.80;;;;;;5042014;28;20916;-66
2021/06/05 06:51:38;;;;;;;28.58;5.07;;;30.20;35.80;;;;;;5039121;28;19957;-66
2021/06/05 06:54:09;;;;;;;33.90;5.50;;;30.20;36.10;;;;;;5039737;28;20242;-66
2021/06/05 06:56:36;;;;;;;32.25;5.13;;;30.10;36.10;;;;;;5040279;28;20091;-66
2021/06/05 06:59:05;;;;;;;23.95;4.22;;;30.20;36.30;;;;;;5035001;28;20080;-66
2021/06/05 07:01:32;;;;;;;19.38;3.67;;;30.10;36.10;;;;;;5036131;28;20069;-67
2021/06/05 07:03:59;;;;;;;18.42;3.55;;;30.00;35.70;;;;;;5011641;28;20097;-66
2021/06/05 07:06:26;;;;;;;25.60;3.92;;;30.00;35.50;;;;;;5032596;28;20077;-65
2021/06/05 07:08:53;;;;;;;24.77;3.72;;;29.90;35.40;;;;;;5032812;28;20873;-66
2021/06/05 07:11:24;;;;;;;20.80;3.70;;;29.80;35.20;;;;;;5014547;28;20766;-66
2021/06/05 07:13:51;;;;;;;21.15;3.53;;;29.80;34.80;;;;;;5017608;28;20081;-66
2021/06/05 07:16:19;;;;;;;21.20;3.63;;;29.70;33.80;;;;;;5033662;28;20159;-66
2021/06/05 07:18:46;;;;;;;16.00;3.13;;;29.60;33.30;;;;;;5000194;28;20088;-66
2021/06/05 07:21:13;;;;;;;18.98;2.67;;;29.60;32.80;;;;;;5039726;28;20856;-68
2021/06/05 07:23:42;;;;;;;23.02;3.70;;;29.70;31.50;;;;;;5026264;28;20128;-68
2021/06/05 07:26:16;;;;;;;22.40;3.42;;;29.70;31.00;;;;;;5033834;28;20163;-68
2021/06/05 07:28:48;;;;;;;14.00;3.30;;;29.80;30.20;;;;;;5025070;28;20836;-68
2021/06/05 07:31:20;;;;;;;19.02;3.80;;;29.80;30.00;;;;;;4992002;28;20861;-69
2021/06/05 07:33:47;;;;;;;13.98;3.50;;;29.90;29.80;;;;;;4980992;28;20645;-68
2021/06/05 07:36:21;;;;;;;18.25;3.30;;;29.80;29.60;;;;;;4982033;28;20752;-68
2021/06/05 07:38:48;;;;;;;22.10;2.58;;;29.90;29.70;;;;;;4984700;28;20126;-68
2021/06/05 07:41:15;;;;;;;14.13;2.50;;;29.90;30.60;;;;;;4984323;28;20073;-68
2021/06/05 07:43:42;;;;;;;16.08;3.03;;;29.90;30.70;;;;;;4999658;28;20101;-69
2021/06/05 07:46:08;;;;;;;24.83;3.05;;;29.90;31.10;;;;;;5025653;28;20081;-69
2021/06/05 07:48:36;;;;;;;19.58;2.90;;;29.90;31.50;;;;;;5023436;28;20473;-69
2021/06/05 07:51:03;;;;;;;14.73;3.13;;;29.90;32.40;;;;;;5031834;28;20113;-69
2021/06/05 07:53:30;;;;;;;18.42;3.40;;;29.90;32.30;;;;;;5029986;28;20081;-69
2021/06/05 07:55:56;;;;;;;20.13;3.35;;;29.80;32.20;;;;;;5025736;28;20077;-67
2021/06/05 07:58:23;;;;;;;18.25;2.67;;;29.70;31.90;;;;;;4994783;28;20073;-67
2021/06/05 08:00:50;;;;;;;21.27;3.75;;;29.80;31.80;;;;;;4997661;28;20077;-67
2021/06/05 08:03:17;;;;;;;29.85;4.07;;;29.70;31.70;;;;;;5001203;28;20413;-67
2021/06/05 08:05:43;;;;;;;19.63;4.05;;;29.70;30.00;;;;;;5031258;28;20077;-67
2021/06/05 08:08:17;;;;;;;22.58;4.15;;;29.60;30.00;;;;;;5034498;28;20750;-68
2021/06/05 08:10:44;;;;;;;19.05;3.85;;;29.60;29.50;;;;;;5029494;28;20148;-68
2021/06/05 08:13:11;;;;;;;14.88;3.33;;;29.60;29.80;;;;;;5033156;28;20065;-68
2021/06/05 08:15:42;;;;;;;19.60;3.35;;;29.60;30.00;;;;;;5032641;28;20117;-68
2021/06/05 08:18:10;;;;;;;17.65;2.88;;;29.50;30.20;;;;;;5028785;28;20073;-67
2021/06/05 08:20:42;;;;;;;15.07;3.50;;;29.50;30.20;;;;;;5032584;28;20104;-59
2021/06/05 08:23:10;;;;;;;16.77;3.42;;;29.80;30.50;;;;;;5032784;28;20070;-59
2021/06/05 08:25:37;;;;;;;17.88;3.95;;;29.80;30.70;;;;;;5031724;28;20240;-60
2021/06/05 08:28:05;;;;;;;20.52;3.80;;;29.70;30.80;;;;;;5030271;28;20077;-59
2021/06/05 08:30:37;;;;;;;21.58;4.38;;;29.70;30.30;;;;;;5026301;28;20070;-61
2021/06/05 08:33:05;;;;;;;19.88;4.20;;;29.70;30.50;;;;;;5030844;28;20710;-60
2021/06/05 08:35:31;;;;;;;16.90;3.90;;;29.70;30.10;;;;;;5028876;28;20066;-60
2021/06/05 08:37:58;;;;;;;19.88;3.33;;;29.60;30.20;;;;;;5030213;28;20097;-60
2021/06/05 08:40:42;;;;;;;18.08;3.28;;;29.50;30.10;;;;;;5010461;28;20100;-60
2021/06/05 08:43:15;;;;;;;20.48;2.97;;;29.60;29.90;;;;;;5024623;28;20069;-61
2021/06/05 08:45:41;;;;;;;14.18;3.05;;;29.60;29.70;;;;;;5028507;28;20101;-61
2021/06/05 08:48:15;;;;;;;25.05;2.83;;;29.60;30.00;;;;;;5028613;28;20076;-61
2021/06/05 08:50:42;;;;;;;17.02;2.67;;;29.80;29.50;;;;;;5025126;28;20070;-60
2021/06/05 08:53:14;;;;;;;26.48;3.90;;;29.80;29.20;;;;;;5027743;28;20070;-60
2021/06/05 08:56:00;;;;;;;9.85;2.65;;;29.80;29.50;;;;;;5032391;28;20160;-60
2021/06/05 08:58:44;;;;;;;16.92;3.28;;;29.60;29.70;;;;;;5029910;28;20095;-61
2021/06/05 09:01:43;;;;;;;16.13;3.05;;;29.50;29.70;;;;;;5031592;28;20073;-60
2021/06/05 09:04:15;;;;;;;21.83;3.65;;;29.40;30.30;;;;;;5030536;28;20223;-61
2021/06/05 09:06:45;;;;;;;23.27;4.10;;;29.30;30.00;;;;;;5032510;28;20088;-60
2021/06/05 09:09:17;;;;;;;20.17;3.50;;;29.30;30.00;;;;;;5031285;28;20100;-60
2021/06/05 09:11:43;;;;;;;12.88;3.35;;;29.30;30.00;;;;;;5029132;28;20061;-61
2021/06/05 09:14:10;;;;;;;16.08;3.95;;;29.30;30.00;;;;;;5025435;28;20834;-60
2021/06/05 09:16:51;;;;;;;14.75;3.17;;;29.30;29.50;;;;;;5015688;28;20151;-61
2021/06/05 09:19:33;;;;;;;18.25;3.25;;;29.30;29.40;;;;;;5023911;28;20093;-60
2021/06/05 09:22:08;;;;;;;26.10;4.10;;;29.30;29.00;;;;;;5048919;28;20471;-61
2021/06/05 09:24:43;;;;;;;22.52;3.80;;;29.30;29.00;;;;;;5050081;28;20100;-60
2021/06/05 09:27:19;;;;;;;25.02;3.25;;;29.30;28.90;;;;;;5047973;28;20072;-61
2021/06/05 09:29:51;;;;;;;31.92;4.07;;;29.20;29.10;;;;;;5034763;28;20068;-61
2021/06/05 09:32:25;;;;;;;22.88;3.55;;;29.20;29.50;;;;;;5052955;28;20083;-61
2021/06/05 09:35:10;;;;;;;23.70;3.60;;;29.20;30.30;;;;;;5015166;28;20795;-62
2021/06/05 09:37:45;;;;;;;24.17;4.03;;;29.10;31.10;;;;;;5045404;28;20821;-61
2021/06/05 09:40:29;;;;;;;28.25;4.88;;;29.10;31.40;;;;;;5046308;28;20122;-61
2021/06/05 09:43:18;;;;;;;21.15;4.47;;;29.20;31.70;;;;;;5044277;28;20142;-61
2021/06/05 09:45:47;;;;;;;18.95;4.15;;;29.20;32.30;;;;;;5048625;28;20145;-61
2021/06/05 09:48:32;;;;;;;16.27;4.05;;;29.10;33.00;;;;;;5042086;28;20084;-60
2021/06/05 09:51:02;;;;;;;28.13;5.07;;;29.00;33.40;;;;;;5055231;28;20799;-61
2021/06/05 09:53:37;;;;;;;21.48;4.35;;;28.90;34.00;;;;;;5043486;28;20734;-61
2021/06/05 09:56:23;;;;;;;18.05;4.10;;;28.80;34.20;;;;;;5054948;28;20886;-61
2021/06/05 09:59:03;;;;;;;15.23;4.15;;;28.90;34.40;;;;;;5049907;28;21169;-60
2021/06/05 10:01:31;;;;;;;26.55;4.03;;;28.80;34.50;;;;;;5057418;28;20084;-61
2021/06/05 10:04:19;;;;;;;28.83;6.07;;;28.80;34.80;;;;;;5050095;28;20116;-61
2021/06/05 10:06:48;;;;;;;43.58;7.82;;;28.60;37.30;;;;;;5038947;28;20521;-62
2021/06/05 10:09:27;;;;;;;44.33;8.45;;;28.40;39.60;;;;;;5046341;28;20076;-62
2021/06/05 10:12:09;;;;;;;47.70;7.85;;;28.40;40.60;;;;;;5052821;28;20870;-62
2021/06/05 10:14:47;;;;;;;42.15;7.85;;;28.30;41.50;;;;;;5042156;28;20108;-61
2021/06/05 10:17:26;;;;;;;47.42;9.10;;;28.40;41.30;;;;;;5051030;28;20069;-62
2021/06/05 10:20:20;;;;;;;48.53;8.38;;;28.30;41.80;;;;;;5049446;28;20787;-61
2021/06/05 10:22:51;;;;;;;50.35;8.20;;;28.20;42.50;;;;;;5043060;28;20537;-62
2021/06/05 10:25:49;;;;;;;41.28;7.93;;;28.10;42.90;;;;;;5054548;28;20089;-62
2021/06/05 10:28:22;;;;;;;50.70;8.27;;;28.10;43.00;;;;;;5053661;28;20084;-61
2021/06/05 10:30:56;;;;;;;44.20;8.70;;;27.90;43.50;;;;;;5054195;28;20103;-61
2021/06/05 10:33:41;;;;;;;43.70;7.57;;;27.80;44.20;;;;;;5037132;28;20065;-61
2021/06/05 10:36:18;;;;;;;51.00;8.20;;;27.60;44.30;;;;;;5059949;28;20621;-61
2021/06/05 10:38:46;;;;;;;;;;;27.60;44.40;;;;;;5051693;28;20519;-61
2021/06/05 10:41:17;;;;;;;50.55;8.07;;;27.60;44.40;;;;;;5055154;28;19957;-62
2021/06/05 10:43:46;;;;;;;52.28;8.07;;;27.50;44.70;;;;;;5053433;28;22006;-61
2021/06/05 10:46:21;;;;;;;43.65;8.13;;;27.50;44.70;;;;;;5056604;28;20794;-62
2021/06/05 10:48:50;;;;;;;44.67;8.25;;;27.40;45.20;;;;;;5053721;28;20700;-62
2021/06/05 10:51:26;;;;;;;49.17;8.23;;;27.40;44.90;;;;;;5055254;28;20280;-61
2021/06/05 10:54:06;;;;;;;35.15;7.22;;;27.40;44.40;;;;;;5044714;28;20133;-62
2021/06/05 10:56:57;;;;;;;40.40;6.75;;;27.40;44.00;;;;;;5057483;28;20068;-62
2021/06/05 10:59:39;;;;;;;48.13;6.78;;;27.40;43.90;;;;;;5050900;28;21243;-61
2021/06/05 11:02:06;;;;;;;36.35;6.80;;;27.50;43.30;;;;;;5058662;28;20221;-62
2021/06/05 11:04:32;;;;;;;33.63;6.93;;;27.40;43.40;;;;;;5054430;28;20096;-60
2021/06/05 11:07:22;;;;;;;26.25;5.90;;;27.40;42.70;;;;;;5052884;28;20171;-60
2021/06/05 11:09:51;;;;;;;31.55;5.70;;;27.40;42.10;;;;;;5051775;28;20076;-62
2021/06/05 11:12:18;;;;;;;22.00;4.80;;;27.40;41.50;;;;;;5056278;28;20779;-61
2021/06/05 11:14:46;;;;;;;21.25;4.90;;;27.40;40.50;;;;;;5051475;28;20177;-61
2021/06/05 11:17:21;;;;;;;25.33;3.92;;;27.40;40.50;;;;;;5051996;28;20073;-61
2021/06/05 11:19:54;;;;;;;20.25;4.30;;;27.30;40.20;;;;;;5049997;28;20112;-61
2021/06/05 11:22:26;;;;;;;21.17;3.90;;;27.40;39.80;;;;;;5050374;28;21570;-60
2021/06/05 11:25:08;;;;;;;21.48;4.88;;;27.30;39.40;;;;;;5044105;28;20097;-61
2021/06/05 11:27:37;;;;;;;27.73;3.78;;;27.20;39.00;;;;;;5045320;28;20067;-62
2021/06/05 11:30:21;;;;;;;24.02;4.10;;;27.20;39.00;;;;;;5047052;28;20160;-62
2021/06/05 11:32:56;;;;;;;23.95;4.30;;;27.20;38.90;;;;;;5049232;28;20069;-61
2021/06/05 11:35:41;;;;;;;24.05;3.90;;;27.30;39.20;;;;;;5049433;28;20599;-61
2021/06/05 11:38:20;;;;;;;23.35;4.18;;;27.10;38.90;;;;;;5058268;28;20083;-61
2021/06/05 11:41:01;;;;;;;21.20;4.53;;;27.10;38.80;;;;;;5048186;28;20083;-62
2021/06/05 11:43:30;;;;;;;24.13;4.25;;;27.00;39.10;;;;;;5051037;28;20077;-62
2021/06/05 11:46:13;;;;;;;20.20;3.75;;;27.00;39.60;;;;;;5046265;28;20073;-62
2021/06/05 11:48:49;;;;;;;17.33;3.70;;;26.90;39.30;;;;;;5049731;28;20073;-61
2021/06/05 11:51:21;;;;;;;18.17;4.18;;;26.90;38.70;;;;;;5019929;28;20087;-62
2021/06/05 11:53:55;;;;;;;15.93;3.30;;;26.80;37.50;;;;;;5053192;28;20057;-61
2021/06/05 11:56:42;;;;;;;13.43;3.22;;;26.80;37.10;;;;;;5047238;28;20083;-61
2021/06/05 11:59:35;;;;;;;;;;;26.80;36.90;;;;;;5042026;28;20549;-61
2021/06/05 12:02:24;;;;;;;17.23;3.47;;;26.70;36.80;;;;;;5019982;28;20071;-60
2021/06/05 12:05:28;;;;;;;21.75;4.22;;;26.70;37.00;;;;;;5053220;28;20238;-62
2021/06/05 12:07:55;;;;;;;11.90;3.40;;;26.70;36.60;;;;;;4995014;28;21011;-61
2021/06/05 12:10:51;;;;;;;17.77;3.80;;;26.60;36.40;;;;;;5038237;28;20088;-62
2021/06/05 12:13:35;;;;;;;24.48;4.57;;;26.60;36.20;;;;;;5024178;28;20484;-62
2021/06/05 12:16:13;;;;;;;23.83;5.75;;;26.50;36.40;;;;;;5048888;28;20163;-62
2021/06/05 12:18:40;;;;;;;20.77;7.50;;;26.50;36.10;;;;;;5052568;28;20088;-61
2021/06/05 12:21:30;;;;;;;32.50;8.32;;;26.40;36.30;;;;;;5038387;28;20105;-62
2021/06/05 12:23:57;;;;;;;44.55;10.25;;;26.50;36.40;;;;;;5050092;28;20101;-62
2021/06/05 12:26:27;;;;;;;29.40;10.10;;;26.50;36.20;;;;;;5051038;28;20106;-62
2021/06/05 12:29:11;;;;;;;38.22;11.77;;;26.50;36.20;;;;;;5051465;28;20089;-62
2021/06/05 12:31:42;;;;;;;36.90;12.82;;;26.50;36.10;;;;;;5047145;28;20862;-61
2021/06/05 12:34:13;;;;;;;45.83;11.90;;;26.40;36.20;;;;;;5051905;28;20080;-61
2021/06/05 12:36:43;;;;;;;28.75;9.98;;;26.20;36.60;;;;;;5048332;28;20077;-60
2021/06/05 12:39:30;;;;;;;30.70;9.57;;;26.30;36.40;;;;;;5049472;28;20616;-62
2021/06/05 12:41:57;;;;;;;41.45;11.55;;;26.40;36.70;;;;;;5033433;28;20165;-61
2021/06/05 12:44:27;;;;;;;30.67;10.30;;;26.30;36.60;;;;;;5056705;28;20127;-62
2021/06/05 12:46:56;;;;;;;42.50;12.10;;;26.30;36.60;;;;;;5050250;28;20076;-62
2021/06/05 12:49:26;;;;;;;42.35;12.40;;;26.40;36.80;;;;;;5050627;28;20068;-62
2021/06/05 12:51:55;;;;;;;40.20;11.25;;;26.40;36.90;;;;;;5041352;28;20137;-62
2021/06/05 12:54:32;;;;;;;38.47;11.32;;;26.40;36.90;;;;;;5053270;28;20777;-62
2021/06/05 12:57:22;;;;;;;44.33;11.35;;;26.40;37.10;;;;;;5042552;28;20180;-62
2021/06/05 12:59:49;;;;;;;32.00;10.13;;;26.40;38.00;;;;;;5044737;28;20462;-60